createdAt,value
2022-11-06T00:00:19.832Z,1306
2022-11-06T00:05:38.006Z,1316
2022-11-06T00:10:56.974Z,1314
2022-11-06T00:16:15.283Z,1309
2022-11-06T00:21:34.023Z,1313
2022-11-06T00:26:54.486Z,1311
2022-11-06T00:32:13.203Z,1322
2022-11-06T00:37:31.395Z,1341
2022-11-06T00:42:50.187Z,1359
2022-11-06T00:48:08.342Z,1394
2022-11-06T00:53:26.903Z,1417
2022-11-06T00:58:45.124Z,1435
2022-11-06T01:04:03.412Z,1458
2022-11-06T01:09:21.604Z,1481
2022-11-06T01:14:39.872Z,1491
2022-11-06T01:19:58.247Z,1491
2022-11-06T01:25:16.738Z,1502
2022-11-06T01:30:35.225Z,1493
2022-11-06T01:35:53.436Z,1483
2022-11-06T01:41:11.897Z,1478
2022-11-06T01:46:30.687Z,1476
2022-11-06T01:51:49.134Z,1472
2022-11-06T01:57:07.913Z,1471
2022-11-06T02:02:26.878Z,1475
2022-11-06T02:07:45.860Z,1482
2022-11-06T02:13:04.084Z,1482
2022-11-06T02:18:22.930Z,1478
2022-11-06T02:23:41.089Z,1470
2022-11-06T02:28:59.876Z,1472
2022-11-06T02:34:18.665Z,1479
2022-11-06T02:39:37.123Z,1471
2022-11-06T02:44:55.355Z,1471
2022-11-06T02:50:14.135Z,1463
2022-11-06T02:55:32.872Z,1468
2022-11-06T03:00:51.654Z,1470
2022-11-06T03:06:09.888Z,1471
2022-11-06T03:11:28.333Z,1473
2022-11-06T03:16:47.095Z,1476
2022-11-06T03:22:05.615Z,1463
2022-11-06T03:27:24.534Z,1464
2022-11-06T03:32:43.281Z,1467
2022-11-06T03:38:02.454Z,1463
2022-11-06T03:43:20.628Z,1451
2022-11-06T03:48:23.506Z,1452
2022-11-06T03:53:42.348Z,1428
2022-11-06T03:59:01.138Z,1412
2022-11-06T04:04:19.413Z,1406
2022-11-06T04:09:38.226Z,1403
2022-11-06T04:14:56.389Z,1394
2022-11-06T04:20:14.882Z,1387
2022-11-06T04:25:33.676Z,1384
2022-11-06T04:30:52.156Z,1380
2022-11-06T04:36:10.909Z,1379
2022-11-06T04:41:29.410Z,1365
2022-11-06T04:46:47.981Z,1358
2022-11-06T04:52:06.488Z,1367
2022-11-06T04:57:24.710Z,1359
2022-11-06T05:02:43.624Z,1362
2022-11-06T05:08:02.114Z,1381
2022-11-06T05:13:20.311Z,1352
2022-11-06T05:18:38.844Z,1341
2022-11-06T05:23:57.641Z,1337
2022-11-06T05:29:15.851Z,1340
2022-11-06T05:34:33.794Z,1340
2022-11-06T05:39:52.286Z,1334
2022-11-06T05:45:10.805Z,1333
2022-11-06T05:50:29.574Z,1340
2022-11-06T05:55:48.038Z,1331
2022-11-06T06:01:06.833Z,1338
2022-11-06T06:06:25.341Z,1339
2022-11-06T06:11:43.805Z,1323
2022-11-06T06:17:02.618Z,1330
2022-11-06T06:22:20.796Z,1337
2022-11-06T06:27:39.279Z,1309
2022-11-06T06:32:57.509Z,1287
2022-11-06T06:38:16.431Z,1277
2022-11-06T06:43:35.070Z,1278
2022-11-06T06:48:53.600Z,1336
2022-11-06T06:54:12.058Z,1358
2022-11-06T06:59:30.577Z,1318
2022-11-06T07:04:49.084Z,1318
2022-11-06T07:10:07.817Z,1286
2022-11-06T07:15:26.578Z,1275
2022-11-06T07:20:45.085Z,1260
2022-11-06T07:26:02.991Z,1265
2022-11-06T07:31:21.524Z,1282
2022-11-06T07:36:39.732Z,1286
2022-11-06T07:41:57.912Z,1285
2022-11-06T07:47:16.679Z,1278
2022-11-06T07:52:35.207Z,1266
2022-11-06T07:57:53.950Z,1274
2022-11-06T08:03:12.455Z,1267
2022-11-06T08:08:31.259Z,1311
2022-11-06T08:13:33.810Z,916
2022-11-06T08:18:52.046Z,792
2022-11-06T08:24:10.585Z,691
2022-11-06T08:29:29.125Z,574
2022-11-06T08:34:47.857Z,525
2022-11-06T08:40:06.674Z,509
2022-11-06T08:45:25.822Z,486
2022-11-06T08:50:44.277Z,468
2022-11-06T08:56:02.734Z,474
2022-11-06T09:01:22.047Z,458
2022-11-06T09:06:25.832Z,425
2022-11-06T09:11:44.574Z,419
2022-11-06T09:17:02.468Z,410
2022-11-06T09:22:21.229Z,409
2022-11-06T09:27:39.975Z,427
2022-11-06T09:32:59.037Z,415
2022-11-06T09:38:17.834Z,455
2022-11-06T09:44:04.449Z,422
2022-11-06T09:49:24.478Z,408
2022-11-06T09:54:42.997Z,408
2022-11-06T10:00:02.125Z,409
2022-11-06T10:05:20.839Z,413
2022-11-06T10:10:39.367Z,414
2022-11-06T10:15:58.235Z,408
2022-11-06T10:21:16.115Z,411
2022-11-06T10:26:34.874Z,414
2022-11-06T10:31:53.401Z,418
2022-11-06T10:36:57.875Z,435
2022-11-06T10:42:16.636Z,432
2022-11-06T10:47:34.876Z,428
2022-11-06T10:52:53.594Z,434
2022-11-06T10:58:12.417Z,437
2022-11-06T11:03:31.602Z,430
2022-11-06T11:08:50.050Z,425
2022-11-06T11:14:08.530Z,413
2022-11-06T11:19:27.069Z,409
2022-11-06T11:24:45.530Z,429
2022-11-06T11:30:04.284Z,499
2022-11-06T11:35:22.821Z,515
2022-11-06T11:40:41.556Z,514
2022-11-06T11:46:00.332Z,512
2022-11-06T11:51:19.097Z,521
2022-11-06T11:57:02.745Z,539
2022-11-06T12:02:27.508Z,585
2022-11-06T12:07:46.698Z,608
2022-11-06T12:13:05.322Z,631
2022-11-06T12:18:23.796Z,636
2022-11-06T12:23:42.572Z,646
2022-11-06T12:29:05.058Z,651
2022-11-06T12:34:24.104Z,657
2022-11-06T12:39:42.617Z,666
2022-11-06T12:45:01.075Z,679
2022-11-06T12:50:19.528Z,678
2022-11-06T12:55:38.332Z,684
2022-11-06T13:00:57.092Z,687
2022-11-06T13:06:15.464Z,697
2022-11-06T13:11:34.223Z,733
2022-11-06T13:16:37.335Z,756
2022-11-06T13:21:56.084Z,768
2022-11-06T13:27:14.303Z,760
2022-11-06T13:32:32.539Z,761
2022-11-06T13:37:50.769Z,773
2022-11-06T13:43:09.283Z,783
2022-11-06T13:48:27.909Z,787
2022-11-06T13:53:59.427Z,805
2022-11-06T13:59:21.126Z,814
2022-11-06T14:04:53.363Z,822
2022-11-06T14:10:11.781Z,822
2022-11-06T14:15:30.285Z,833
2022-11-06T14:20:48.758Z,847
2022-11-06T14:26:06.950Z,877
2022-11-06T14:31:29.977Z,904
2022-11-06T14:36:48.315Z,931
2022-11-06T14:42:06.525Z,847
2022-11-06T14:47:24.515Z,836
2022-11-06T14:52:43.006Z,871
2022-11-06T14:58:01.201Z,885
2022-11-06T15:03:19.744Z,878
2022-11-06T15:08:37.660Z,868
2022-11-06T15:13:56.131Z,875
2022-11-06T15:19:15.025Z,884
2022-11-06T15:24:33.786Z,909
2022-11-06T15:29:52.567Z,931
2022-11-06T15:35:11.383Z,931
2022-11-06T15:40:29.554Z,935
2022-11-06T15:45:48.002Z,928
2022-11-06T15:51:06.521Z,847
2022-11-06T15:56:24.967Z,898
2022-11-06T16:01:43.469Z,926
2022-11-06T16:07:02.519Z,941
2022-11-06T16:12:21.236Z,931
2022-11-06T16:17:42.885Z,950
2022-11-06T16:23:04.182Z,967
2022-11-06T16:28:22.390Z,979
2022-11-06T16:33:40.549Z,972
2022-11-06T16:38:58.781Z,961
2022-11-06T16:44:17.563Z,1006
2022-11-06T16:49:36.006Z,1035
2022-11-06T16:54:54.879Z,1048
2022-11-06T17:00:13.615Z,1052
2022-11-06T17:05:32.055Z,1041
2022-11-06T17:10:50.853Z,1035
2022-11-06T17:16:09.312Z,1032
2022-11-06T17:21:28.102Z,1025
2022-11-06T17:26:46.607Z,1040
2022-11-06T17:32:05.083Z,1042
2022-11-06T17:37:23.280Z,1042
2022-11-06T17:42:41.499Z,1038
2022-11-06T17:48:00.273Z,1009
2022-11-06T17:53:19.028Z,931
2022-11-06T17:58:37.310Z,948
2022-11-06T18:03:55.886Z,997
2022-11-06T18:09:13.792Z,1109
2022-11-06T18:14:32.620Z,1166
2022-11-06T18:19:50.825Z,1192
2022-11-06T18:25:09.003Z,1213
2022-11-06T18:30:27.779Z,1220
2022-11-06T18:35:46.082Z,1230
2022-11-06T18:41:04.787Z,1257
2022-11-06T18:46:22.723Z,1275
2022-11-06T18:51:41.221Z,1292
2022-11-06T18:57:00.000Z,1301
2022-11-06T19:02:17.995Z,950
2022-11-06T19:07:36.727Z,1066
2022-11-06T19:12:59.153Z,1177
2022-11-06T19:18:18.337Z,1219
2022-11-06T19:23:37.157Z,1241
2022-11-06T19:28:55.914Z,1261
2022-11-06T19:34:14.431Z,1267
2022-11-06T19:39:32.435Z,1264
2022-11-06T19:44:50.845Z,1267
2022-11-06T19:50:09.612Z,1274
2022-11-06T19:55:28.152Z,1293
2022-11-06T20:00:46.025Z,1317
2022-11-06T20:06:07.720Z,1324
2022-11-06T20:11:26.204Z,1330
2022-11-06T20:16:44.694Z,1339
2022-11-06T20:22:03.482Z,1351
2022-11-06T20:27:21.959Z,1380
2022-11-06T20:32:40.719Z,1403
2022-11-06T20:37:59.531Z,1445
2022-11-06T20:43:18.088Z,1509
2022-11-06T20:48:36.980Z,1529
2022-11-06T20:53:55.515Z,1571
2022-11-06T20:59:13.710Z,1586
2022-11-06T21:04:32.515Z,1614
2022-11-06T21:09:51.036Z,1648
2022-11-06T21:14:54.876Z,1690
2022-11-06T21:20:13.393Z,1695
2022-11-06T21:25:34.446Z,1729
2022-11-06T21:30:52.355Z,1730
2022-11-06T21:36:10.828Z,1733
2022-11-06T21:41:29.615Z,1745
2022-11-06T21:46:47.806Z,1781
2022-11-06T21:52:06.283Z,1814
2022-11-06T21:57:24.529Z,1832
2022-11-06T22:02:43.042Z,1847
2022-11-06T22:08:02.230Z,1866
2022-11-06T22:13:21.000Z,1876
2022-11-06T22:18:39.173Z,1880
2022-11-06T22:23:57.675Z,1882
2022-11-06T22:29:16.211Z,1883
2022-11-06T22:34:35.026Z,1899
2022-11-06T22:39:52.950Z,1896
2022-11-06T22:45:11.782Z,1895
2022-11-06T22:50:31.175Z,1891
2022-11-06T22:55:49.696Z,1888
2022-11-06T23:01:08.479Z,1889
2022-11-06T23:06:26.748Z,1897
2022-11-06T23:11:45.510Z,1895
2022-11-06T23:17:04.030Z,1888
2022-11-06T23:22:22.769Z,1887
2022-11-06T23:27:44.383Z,1891
2022-11-06T23:33:08.407Z,1920
2022-11-06T23:38:27.138Z,1929
2022-11-06T23:43:45.356Z,1956
2022-11-06T23:49:03.874Z,1960
2022-11-06T23:54:22.355Z,1962
2022-11-06T23:59:40.822Z,1979
